Time;durP1;ratioP1;P1;durP2;ratioP2;P2;SDS_P1;SDS_P2;PMS_P1;PMS_P2;Temp;Humidity;BMP_temperature;BMP_pressure;BME280_temperature;BME280_humidity;BME280_pressure;Samples;Min_cycle;Max_cycle;Signal;HPM_P1;HPM_P2
2023/12/22 00:01:15;;;;;;;21.17;3.40;;;4.70;99.90;;;7.25;100.00;98453.47;5073678;28;20041;-80
2023/12/22 00:03:45;;;;;;;21.30;3.30;;;4.80;99.90;;;7.71;100.00;98448.69;5070200;28;20047;-80
2023/12/22 00:06:12;;;;;;;18.48;3.63;;;4.80;99.90;;;7.87;100.00;98446.97;5064715;28;20041;-81
2023/12/22 00:08:38;;;;;;;18.17;3.17;;;4.80;99.90;;;8.06;100.00;98443.94;5070596;28;20036;-79
2023/12/22 00:11:04;;;;;;;21.73;2.85;;;4.80;99.90;;;7.97;100.00;98435.41;5070652;28;20052;-78
2023/12/22 00:13:32;;;;;;;20.75;3.00;;;4.80;99.90;;;8.02;100.00;98446.34;5070664;28;20029;-78
2023/12/22 00:15:58;;;;;;;18.65;3.67;;;4.80;99.90;;;7.75;100.00;98449.81;5039512;28;20041;-80
2023/12/22 00:18:24;;;;;;;16.92;4.07;;;4.80;99.90;;;7.79;100.00;98428.44;5056633;28;20033;-79
2023/12/22 00:20:49;;;;;;;20.63;3.45;;;4.70;99.90;;;7.57;100.00;98442.81;5071800;28;20059;-79
2023/12/22 00:23:15;;;;;;;16.02;3.13;;;4.70;99.90;;;7.64;100.00;98426.34;5071596;28;20085;-80
2023/12/22 00:25:40;;;;;;;19.25;2.78;;;4.80;99.90;;;7.49;100.00;98440.53;5035829;28;20041;-77
2023/12/22 00:28:06;;;;;;;15.40;2.75;;;4.80;99.90;;;7.81;100.00;98455.31;5069134;28;20032;-79
2023/12/22 00:30:32;;;;;;;13.00;2.35;;;4.90;99.90;;;8.19;100.00;98434.56;5070404;28;20048;-78
2023/12/22 00:32:58;;;;;;;13.27;2.20;;;4.80;99.90;;;7.78;100.00;98426.78;5070010;28;20170;-81
2023/12/22 00:35:24;;;;;;;16.40;3.13;;;4.80;99.90;;;8.19;100.00;98440.00;5039336;28;20366;-80
2023/12/22 00:37:49;;;;;;;19.33;3.45;;;4.90;99.90;;;8.25;100.00;98460.72;5068759;28;20041;-77
2023/12/22 00:40:15;;;;;;;15.98;2.05;;;4.90;99.90;;;8.44;100.00;98447.59;5070843;28;20047;-78
2023/12/22 00:42:41;;;;;;;17.98;3.10;;;4.90;99.90;;;8.05;100.00;98478.41;5045001;28;20099;-78
2023/12/22 00:45:07;;;;;;;14.25;2.75;;;5.00;99.90;;;8.31;100.00;98458.88;5042292;28;20037;-78
2023/12/22 00:47:35;;;;;;;18.00;3.08;;;5.00;99.90;;;7.69;100.00;98458.97;5069823;28;20374;-78
2023/12/22 00:50:04;;;;;;;16.65;3.28;;;5.00;99.90;;;7.86;100.00;98477.91;5068822;28;20044;-76
2023/12/22 00:52:30;;;;;;;16.00;2.55;;;4.90;99.90;;;8.13;100.00;98455.41;5070255;28;20114;-77
2023/12/22 00:54:56;;;;;;;13.85;3.17;;;4.80;99.90;;;8.07;100.00;98457.25;5041650;28;20500;-79
2023/12/22 00:57:22;;;;;;;21.33;2.70;;;4.80;99.90;;;8.12;100.00;98463.84;5077680;28;20035;-80
2023/12/22 00:59:48;;;;;;;17.65;3.22;;;4.80;99.90;;;7.71;100.00;98480.44;5070169;28;20511;-80
2023/12/22 01:02:18;;;;;;;24.08;3.08;;;4.70;99.90;;;8.01;100.00;98503.63;5070034;28;20037;-78
2023/12/22 01:04:44;;;;;;;13.23;2.35;;;4.80;99.90;;;7.78;100.00;98486.50;5068356;28;20051;-79
2023/12/22 01:07:11;;;;;;;23.40;4.22;;;4.80;99.90;;;7.99;100.00;98487.56;5069966;28;20035;-80
2023/12/22 01:09:37;;;;;;;21.95;4.07;;;4.80;99.90;;;7.23;100.00;98494.41;5040972;28;20036;-79
2023/12/22 01:12:07;;;;;;;22.63;3.10;;;4.90;99.90;;;7.62;100.00;98499.84;5070828;28;20055;-79
2023/12/22 01:14:33;;;;;;;13.27;2.63;;;4.90;99.90;;;7.75;100.00;98489.72;5068688;28;20047;-76
2023/12/22 01:17:00;;;;;;;24.05;3.20;;;4.80;99.90;;;7.84;100.00;98501.78;5070580;28;20120;-80
2023/12/22 01:19:26;;;;;;;19.80;3.25;;;4.70;99.90;;;7.18;100.00;98491.63;5085576;28;20154;-79
2023/12/22 01:21:51;;;;;;;17.58;3.33;;;4.80;99.90;;;7.42;100.00;98499.56;5075766;28;20123;-79
2023/12/22 01:24:17;;;;;;;15.50;2.67;;;4.80;99.90;;;7.70;100.00;98514.09;5070578;28;20063;-79
2023/12/22 01:26:43;;;;;;;18.13;2.78;;;4.80;99.90;;;7.37;100.00;98530.16;5041103;28;20102;-76
2023/12/22 01:29:08;;;;;;;18.30;2.83;;;4.60;99.90;;;7.50;100.00;98529.00;5078653;28;20055;-79
2023/12/22 01:31:34;;;;;;;17.45;2.88;;;4.50;99.90;;;7.38;100.00;98541.81;5075825;28;20032;-79
2023/12/22 01:34:00;;;;;;;21.00;2.92;;;4.40;99.90;;;7.61;100.00;98528.06;5079993;28;20479;-78
2023/12/22 01:36:26;;;;;;;19.67;2.60;;;4.50;99.90;;;8.05;100.00;98518.34;5071100;28;20083;-79
2023/12/22 01:38:52;;;;;;;15.50;2.38;;;4.40;99.90;;;7.85;100.00;98510.75;5069952;28;20032;-78
2023/12/22 01:41:18;;;;;;;19.10;2.88;;;4.40;99.90;;;7.67;100.00;98528.97;5068848;28;20189;-79
2023/12/22 01:43:43;;;;;;;18.05;2.55;;;4.40;99.90;;;7.31;100.00;98531.16;5069694;28;20036;-78
2023/12/22 01:46:11;;;;;;;20.65;3.33;;;4.30;99.90;;;7.33;100.00;98529.81;5068922;28;20047;-81
2023/12/22 01:48:37;;;;;;;22.95;2.85;;;4.20;99.90;;;7.50;100.00;98531.72;5069072;28;20059;-80
2023/12/22 01:51:06;;;;;;;19.88;2.83;;;4.10;99.90;;;7.05;100.00;98528.84;5069605;28;20067;-79
2023/12/22 01:53:33;;;;;;;14.82;2.63;;;4.10;99.90;;;7.25;100.00;98538.38;5067282;28;20039;-79
2023/12/22 01:56:01;;;;;;;19.67;3.05;;;4.10;99.90;;;7.27;100.00;98541.66;5069533;28;20056;-79
2023/12/22 01:58:30;;;;;;;17.58;2.67;;;4.10;99.90;;;7.19;100.00;98555.66;5068108;28;20036;-80
2023/12/22 02:01:02;;;;;;;14.48;2.58;;;4.00;99.90;;;6.45;100.00;98546.44;5066577;28;20443;-79
2023/12/22 02:03:30;;;;;;;10.52;2.25;;;3.80;99.90;;;7.07;100.00;98535.91;5068487;28;20043;-80
2023/12/22 02:05:56;;;;;;;18.25;2.05;;;3.70;99.90;;;6.72;100.00;98533.16;5069023;28;20032;-78
2023/12/22 02:08:25;;;;;;;20.65;2.72;;;3.60;99.90;;;6.91;100.00;98535.66;5068845;28;20479;-78
2023/12/22 02:10:51;;;;;;;16.45;2.58;;;3.50;99.90;;;6.57;100.00;98539.13;5068322;28;20045;-78
2023/12/22 02:13:18;;;;;;;17.98;2.90;;;3.60;99.90;;;7.03;100.00;98527.44;5069357;28;20047;-78
2023/12/22 02:15:48;;;;;;;13.73;2.45;;;3.70;99.90;;;7.43;100.00;98528.34;5069573;28;20045;-78
2023/12/22 02:18:27;;;;;;;19.88;2.58;;;3.70;99.90;;;7.28;100.00;98528.91;5074983;28;20127;-78
2023/12/22 02:20:53;;;;;;;16.90;2.17;;;3.80;99.90;;;7.24;100.00;98514.19;5064921;28;20048;-80
2023/12/22 02:23:19;;;;;;;23.75;2.92;;;3.90;99.90;;;7.08;100.00;98522.09;5072427;28;20032;-79
2023/12/22 02:25:45;;;;;;;19.27;2.15;;;3.90;99.90;;;7.32;100.00;98539.03;5069798;28;20039;-79
2023/12/22 02:28:17;;;;;;;12.73;2.67;;;4.00;99.90;;;7.40;100.00;98532.38;5046134;28;20091;-78
2023/12/22 02:31:03;;;;;;;14.82;2.30;;;4.00;99.90;;;7.34;100.00;98520.63;5077077;28;20108;-79
2023/12/22 02:33:31;;;;;;;12.68;2.40;;;4.10;99.90;;;7.61;100.00;98519.91;5073455;28;20467;-80
2023/12/22 02:36:03;;;;;;;;;;;4.20;99.90;;;6.96;100.00;98519.47;5071739;28;20100;-78
2023/12/22 02:38:32;;;;;;;12.43;1.95;;;4.30;99.90;;;7.28;100.00;98553.31;5062522;28;20272;-77
2023/12/22 02:40:59;;;;;;;11.45;1.60;;;4.40;99.90;;;6.86;100.00;98530.13;5082879;28;20097;-79
2023/12/22 02:43:24;;;;;;;8.43;1.58;;;4.50;99.90;;;7.37;100.00;98560.00;5078104;28;20036;-78
2023/12/22 02:45:51;;;;;;;8.88;1.52;;;4.40;99.90;;;7.08;100.00;98575.50;5041721;28;20105;-77
2023/12/22 02:48:17;;;;;;;10.18;2.00;;;4.20;99.90;;;6.03;100.00;98561.03;5061405;28;20392;-80
2023/12/22 02:50:43;;;;;;;11.68;1.90;;;3.90;99.90;;;6.09;100.00;98560.09;5058847;28;20051;-77
2023/12/22 02:53:09;;;;;;;6.15;1.50;;;3.50;99.90;;;5.90;100.00;98541.28;5071984;28;20472;-78
2023/12/22 02:55:34;;;;;;;8.25;2.38;;;3.40;99.90;;;5.57;100.00;98552.69;5076381;28;20040;-79
2023/12/22 02:58:00;;;;;;;8.23;1.60;;;3.30;99.90;;;5.54;100.00;98545.06;5073879;28;20040;-77
2023/12/22 03:00:26;;;;;;;9.27;1.45;;;3.30;99.90;;;5.92;100.00;98549.13;5079022;28;20036;-79
2023/12/22 03:02:51;;;;;;;5.25;1.27;;;3.40;99.90;;;6.13;100.00;98558.56;5073407;28;20037;-78
2023/12/22 03:05:17;;;;;;;9.52;2.05;;;3.50;99.90;;;5.89;100.00;98536.94;5072349;28;20523;-79
2023/12/22 03:07:43;;;;;;;11.43;1.42;;;3.50;99.90;;;6.69;100.00;98541.78;5041377;28;20032;-79
2023/12/22 03:10:08;;;;;;;11.32;1.85;;;3.60;99.90;;;5.89;100.00;98523.38;5070776;28;20032;-79
2023/12/22 03:12:34;;;;;;;13.02;2.45;;;3.60;99.90;;;6.77;100.00;98527.00;5047663;28;20048;-79
2023/12/22 03:15:00;;;;;;;14.88;2.53;;;3.60;99.90;;;6.78;100.00;98512.38;5076963;28;20040;-78
2023/12/22 03:17:25;;;;;;;12.52;1.80;;;3.60;99.90;;;6.66;100.00;98531.41;5054068;28;20068;-80
2023/12/22 03:19:51;;;;;;;8.73;1.90;;;3.60;99.90;;;7.07;100.00;98503.34;5072497;28;20069;-79
2023/12/22 03:22:17;;;;;;;8.70;2.20;;;3.60;99.90;;;6.90;100.00;98534.81;5077789;28;20679;-79
2023/12/22 03:24:44;;;;;;;14.35;1.98;;;3.70;99.90;;;7.49;100.00;98538.22;5065779;28;20042;-78
2023/12/22 03:27:09;;;;;;;10.43;1.50;;;3.70;99.90;;;6.77;100.00;98543.28;5038581;28;20113;-79
2023/12/22 03:29:35;;;;;;;13.93;2.22;;;3.80;99.90;;;6.36;100.00;98547.91;5073261;28;20037;-78
2023/12/22 03:32:01;;;;;;;13.13;2.00;;;3.80;99.90;;;6.86;100.00;98554.50;5079004;28;20043;-78
2023/12/22 03:34:26;;;;;;;14.55;2.30;;;3.80;99.90;;;5.97;100.00;98548.44;5071863;28;20107;-79
2023/12/22 03:36:52;;;;;;;20.23;2.40;;;3.60;99.90;;;6.06;100.00;98543.50;5039355;28;20036;-78
2023/12/22 03:39:18;;;;;;;9.85;1.60;;;3.50;99.90;;;6.97;100.00;98541.97;5081545;28;20039;-79
2023/12/22 03:41:44;;;;;;;8.98;1.80;;;3.40;99.90;;;6.67;100.00;98522.22;5070646;28;20479;-77
2023/12/22 03:44:10;;;;;;;15.15;2.42;;;3.60;99.90;;;7.00;100.00;98522.50;5072308;28;20412;-78
2023/12/22 03:46:35;;;;;;;13.30;2.72;;;3.60;99.90;;;7.18;100.00;98533.13;5082509;28;20043;-79
2023/12/22 03:49:01;;;;;;;10.63;2.50;;;3.70;99.90;;;7.06;100.00;98532.38;5074178;28;20076;-78
2023/12/22 03:51:27;;;;;;;16.67;2.45;;;3.60;99.90;;;7.08;100.00;98507.72;5036506;28;20075;-79
2023/12/22 03:53:52;;;;;;;14.77;3.70;;;3.80;99.90;;;6.70;100.00;98502.75;5050167;28;20070;-78
2023/12/22 03:56:18;;;;;;;13.45;1.90;;;3.70;99.90;;;6.94;100.00;98516.19;5070995;28;20055;-80
2023/12/22 03:58:44;;;;;;;18.65;2.80;;;3.70;99.90;;;6.95;100.00;98525.97;5071151;28;20029;-80
2023/12/22 04:01:14;;;;;;;16.02;2.95;;;3.70;99.90;;;7.35;100.00;98526.88;5071452;28;20044;-80
2023/12/22 04:03:40;;;;;;;11.38;2.30;;;3.70;99.90;;;6.87;100.00;98527.19;5073899;28;20040;-78
2023/12/22 04:06:06;;;;;;;19.85;2.83;;;3.60;99.90;;;6.91;100.00;98514.78;5076724;28;20082;-77
2023/12/22 04:08:32;;;;;;;18.73;2.42;;;3.70;99.90;;;6.88;100.00;98509.84;5073711;28;20439;-78
2023/12/22 04:10:58;;;;;;;13.25;2.15;;;3.70;99.90;;;7.11;100.00;98499.09;5073666;28;20052;-79
2023/12/22 04:13:23;;;;;;;15.80;2.42;;;3.80;99.90;;;6.43;100.00;98532.31;5070954;28;20036;-81
2023/12/22 04:15:49;;;;;;;17.80;1.75;;;3.80;99.90;;;6.88;100.00;98519.84;5072912;28;20029;-81
2023/12/22 04:18:15;;;;;;;6.63;1.30;;;3.80;99.90;;;6.29;100.00;98510.13;5070663;28;20376;-80
2023/12/22 04:20:41;;;;;;;8.20;1.27;;;3.80;99.90;;;6.12;100.00;98497.38;5068649;28;20046;-80
2023/12/22 04:23:06;;;;;;;10.32;1.65;;;3.60;99.90;;;6.37;100.00;98496.22;5055956;28;20110;-81
2023/12/22 04:25:32;;;;;;;12.15;2.20;;;3.50;99.90;;;6.31;100.00;98489.03;5071796;28;20468;-79
2023/12/22 04:27:58;;;;;;;12.60;2.17;;;3.40;99.90;;;6.70;100.00;98521.72;5047206;28;20044;-79
2023/12/22 04:30:23;;;;;;;9.15;1.50;;;3.40;99.90;;;6.78;100.00;98530.53;5073685;28;20384;-80
2023/12/22 04:32:49;;;;;;;19.40;2.63;;;3.40;99.90;;;6.59;100.00;98544.28;5071230;28;20037;-81
2023/12/22 04:35:15;;;;;;;18.25;3.65;;;3.70;99.90;;;6.64;100.00;98520.00;5036036;28;20048;-78
2023/12/22 04:37:40;;;;;;;20.90;3.15;;;3.80;99.90;;;6.42;100.00;98530.69;5067640;28;20421;-79
2023/12/22 04:40:07;;;;;;;17.17;2.50;;;3.80;99.90;;;6.75;100.00;98573.31;5070905;28;20039;-78
2023/12/22 04:42:32;;;;;;;19.50;2.83;;;3.70;99.90;;;6.43;100.00;98545.88;5069925;28;20037;-79
2023/12/22 04:44:58;;;;;;;16.80;3.45;;;3.60;99.90;;;5.78;100.00;98586.44;5072939;28;20059;-78
2023/12/22 04:47:24;;;;;;;23.17;3.40;;;3.60;99.90;;;6.26;100.00;98567.47;5074599;28;20033;-79
2023/12/22 04:49:50;;;;;;;15.85;2.47;;;3.50;99.90;;;6.14;100.00;98567.50;5070753;28;20045;-78
2023/12/22 04:52:15;;;;;;;14.98;3.20;;;3.30;99.90;;;5.79;100.00;98560.22;5069956;28;20044;-78
2023/12/22 04:54:41;;;;;;;21.10;3.15;;;3.30;99.90;;;6.61;100.00;98547.56;5041587;28;20048;-77
2023/12/22 04:57:07;;;;;;;15.23;2.65;;;3.30;99.90;;;6.23;100.00;98549.00;5043343;28;20091;-78
2023/12/22 04:59:32;;;;;;;17.85;2.65;;;3.30;99.90;;;6.10;100.00;98563.63;5069627;28;20402;-79
2023/12/22 05:01:58;;;;;;;17.23;2.85;;;3.20;99.90;;;5.93;100.00;98560.81;5069086;28;20045;-79
2023/12/22 05:04:24;;;;;;;18.45;2.90;;;3.20;99.90;;;5.97;100.00;98551.16;5069944;28;20063;-78
2023/12/22 05:06:50;;;;;;;14.00;1.98;;;3.10;99.90;;;6.54;100.00;98557.72;5071436;28;20115;-78
2023/12/22 05:09:16;;;;;;;18.30;2.55;;;3.10;99.90;;;6.57;100.00;98555.38;5070656;28;20025;-78
2023/12/22 05:11:42;;;;;;;15.32;2.33;;;3.10;99.90;;;7.21;100.00;98537.22;5071092;28;20067;-79
2023/12/22 05:14:09;;;;;;;11.80;2.55;;;3.10;99.90;;;6.69;100.00;98524.69;5054849;28;20047;-77
2023/12/22 05:16:35;;;;;;;18.60;2.88;;;3.10;99.90;;;6.58;100.00;98524.50;5070283;28;20032;-78
2023/12/22 05:19:01;;;;;;;15.25;2.75;;;3.10;99.90;;;7.13;100.00;98510.50;5056205;28;20142;-77
2023/12/22 05:21:27;;;;;;;13.60;3.08;;;3.30;99.90;;;7.05;100.00;98555.94;5036973;28;20401;-79
2023/12/22 05:23:53;;;;;;;18.77;2.40;;;3.30;99.90;;;7.07;100.00;98533.19;5060667;28;20397;-78
2023/12/22 05:26:20;;;;;;;13.60;2.85;;;3.30;99.90;;;6.71;100.00;98515.25;5055506;28;20068;-77
2023/12/22 05:28:49;;;;;;;15.70;2.13;;;3.30;99.90;;;6.31;100.00;98516.94;5071181;28;20025;-78
2023/12/22 05:31:16;;;;;;;17.23;2.75;;;3.20;99.90;;;6.49;100.00;98531.34;5070584;28;20036;-79
2023/12/22 05:33:41;;;;;;;16.53;2.87;;;3.60;99.90;;;6.56;100.00;98526.63;5069240;28;20033;-78
2023/12/22 05:36:08;;;;;;;18.65;2.78;;;3.70;99.90;;;7.02;100.00;98514.94;5076931;28;20044;-78
2023/12/22 05:38:38;;;;;;;13.82;2.38;;;3.70;99.90;;;6.90;100.00;98536.72;5057297;28;20287;-79
2023/12/22 05:41:06;;;;;;;16.83;2.80;;;3.80;99.90;;;6.55;100.00;98543.13;5074377;28;20127;-78
2023/12/22 05:43:33;;;;;;;21.52;4.07;;;3.90;99.90;;;7.20;100.00;98560.00;5062298;28;20132;-78
2023/12/22 05:45:59;;;;;;;17.27;2.97;;;3.80;99.90;;;7.30;100.00;98562.88;5064750;28;20045;-79
2023/12/22 05:48:27;;;;;;;14.20;2.10;;;3.70;99.90;;;7.26;100.00;98550.88;5066601;28;20036;-79
2023/12/22 05:50:56;;;;;;;;;;;3.70;99.90;;;6.96;100.00;98560.13;5073799;28;20032;-79
2023/12/22 05:53:21;;;;;;;14.07;2.55;;;3.80;99.90;;;6.67;100.00;98549.31;5075035;28;20007;-83
2023/12/22 05:55:48;;;;;;;12.18;1.92;;;3.80;99.90;;;6.68;100.00;98564.50;5085433;28;20041;-84
2023/12/22 05:58:14;;;;;;;15.85;2.50;;;3.90;99.90;;;7.23;100.00;98551.38;5092037;28;20145;-81
2023/12/22 06:00:40;;;;;;;16.63;1.83;;;4.00;99.90;;;7.47;100.00;98567.47;5092885;28;20037;-78
2023/12/22 06:03:06;;;;;;;16.65;1.70;;;3.90;99.90;;;7.46;100.00;98563.13;5093504;28;20186;-80
2023/12/22 06:05:31;;;;;;;14.73;2.20;;;4.00;99.90;;;7.39;100.00;98576.84;5053340;28;20033;-79
2023/12/22 06:07:57;;;;;;;12.85;1.80;;;4.10;99.90;;;7.45;100.00;98558.78;5068895;28;20044;-81
2023/12/22 06:10:23;;;;;;;14.90;2.60;;;4.20;99.90;;;7.19;100.00;98575.44;5051479;28;20040;-79
2023/12/22 06:12:48;;;;;;;11.10;2.63;;;4.20;99.90;;;7.55;100.00;98563.50;5074773;28;20120;-78
2023/12/22 06:15:14;;;;;;;11.38;1.60;;;4.20;99.90;;;7.60;100.00;98582.59;5081110;28;20041;-79
2023/12/22 06:17:40;;;;;;;18.02;1.98;;;4.20;99.90;;;7.67;100.00;98571.56;5049956;28;20041;-81
2023/12/22 06:20:06;;;;;;;9.18;1.88;;;4.10;99.90;;;6.54;100.00;98576.69;5075732;28;20090;-78
2023/12/22 06:22:32;;;;;;;13.95;2.30;;;4.10;99.90;;;6.22;100.00;98585.25;5069805;28;20082;-78
2023/12/22 06:24:58;;;;;;;14.52;2.55;;;4.10;99.90;;;6.56;100.00;98590.81;5066145;28;20036;-78
2023/12/22 06:27:25;;;;;;;14.48;2.13;;;4.20;99.90;;;6.37;100.00;98592.88;5081193;28;20064;-80
2023/12/22 06:29:50;;;;;;;17.55;2.70;;;4.10;99.90;;;6.49;100.00;98650.53;5076727;28;20094;-79
2023/12/22 06:32:17;;;;;;;11.40;1.63;;;4.20;99.90;;;6.07;100.00;98626.38;5079115;28;20040;-79
2023/12/22 06:34:43;;;;;;;12.75;2.20;;;3.90;99.90;;;5.78;100.00;98620.81;5081260;28;20034;-79
2023/12/22 06:37:10;;;;;;;10.23;1.90;;;3.70;99.90;;;7.52;100.00;98654.38;5080414;28;20084;-78
2023/12/22 06:39:36;;;;;;;9.80;1.52;;;3.90;99.90;;;7.84;100.00;98596.00;5076023;28;20068;-78
2023/12/22 06:42:03;;;;;;;4.43;1.00;;;3.70;99.90;;;8.26;100.00;98605.53;5079359;28;20361;-80
2023/12/22 06:44:31;;;;;;;11.32;1.58;;;3.70;99.90;;;7.80;100.00;98624.69;5054734;28;20081;-79
2023/12/22 06:46:57;;;;;;;5.55;1.08;;;3.70;99.90;;;7.39;100.00;98611.28;5074547;28;20037;-79
2023/12/22 06:49:22;;;;;;;7.68;1.25;;;3.90;99.90;;;7.08;100.00;98643.28;5061895;28;20051;-80
2023/12/22 06:51:48;;;;;;;7.65;1.25;;;3.90;99.90;;;6.94;100.00;98642.75;5084161;28;20395;-81
2023/12/22 06:54:13;;;;;;;6.15;1.00;;;3.80;99.90;;;6.97;100.00;98634.13;5073373;28;20037;-81
2023/12/22 06:56:39;;;;;;;5.65;0.80;;;3.80;99.90;;;8.53;100.00;98646.38;5080673;28;20709;-79
2023/12/22 06:59:06;;;;;;;2.72;1.02;;;3.70;99.90;;;8.30;100.00;98633.84;5075475;28;20028;-80
2023/12/22 07:01:34;;;;;;;7.97;1.35;;;3.70;99.90;;;7.44;100.00;98657.50;5067656;28;20045;-80
2023/12/22 07:04:02;;;;;;;4.47;1.02;;;3.90;99.90;;;7.84;100.00;98648.38;5043822;28;20045;-80
2023/12/22 07:06:34;;;;;;;8.95;1.17;;;3.80;99.90;;;8.05;100.00;98659.56;5048944;28;20036;-79
2023/12/22 07:09:12;;;;;;;2.75;0.90;;;3.80;99.90;;;7.62;100.00;98673.53;5077598;28;20033;-80
2023/12/22 07:11:41;;;;;;;5.10;1.10;;;3.80;99.90;;;7.46;100.00;98683.31;5073311;28;20039;-79
2023/12/22 07:14:08;;;;;;;6.95;1.20;;;3.80;99.90;;;7.79;100.00;98702.59;5050528;28;20032;-80
2023/12/22 07:16:34;;;;;;;4.70;0.93;;;3.80;99.90;;;7.92;100.00;98671.59;5075365;28;20056;-79
2023/12/22 07:19:00;;;;;;;4.50;1.20;;;3.70;99.90;;;8.47;100.00;98682.69;5042073;28;20052;-79
2023/12/22 07:21:26;;;;;;;15.48;2.25;;;3.70;99.90;;;7.77;100.00;98675.69;5073728;28;20488;-78
2023/12/22 07:23:52;;;;;;;8.32;1.40;;;3.60;99.90;;;6.88;100.00;98701.47;5076724;28;20044;-80
2023/12/22 07:26:18;;;;;;;13.73;2.38;;;3.30;99.90;;;6.50;100.00;98744.34;5073368;28;20037;-78
2023/12/22 07:28:46;;;;;;;7.03;1.60;;;3.10;99.90;;;7.03;100.00;98673.88;5066185;28;20021;-82
2023/12/22 07:31:12;;;;;;;6.30;1.17;;;2.90;99.90;;;6.50;100.00;98681.19;5037011;28;20040;-80
2023/12/22 07:33:37;;;;;;;9.55;2.85;;;2.80;99.90;;;5.63;100.00;98735.72;5070607;28;20118;-82
2023/12/22 07:36:04;;;;;;;3.17;0.88;;;2.60;99.90;;;5.69;100.00;98729.38;5077937;28;20044;-81
2023/12/22 07:38:29;;;;;;;2.88;0.77;;;2.50;99.90;;;6.34;100.00;98699.81;5041388;28;20040;-82
2023/12/22 07:40:55;;;;;;;6.20;1.40;;;2.50;99.90;;;6.39;100.00;98727.03;5073028;28;20070;-81
2023/12/22 07:43:21;;;;;;;8.00;1.40;;;2.60;99.90;;;6.71;100.00;98696.81;5072466;28;20028;-83
2023/12/22 07:45:47;;;;;;;8.20;2.03;;;2.60;99.90;;;6.57;100.00;98731.47;5072252;28;20465;-83
2023/12/22 07:48:13;;;;;;;9.85;1.88;;;2.70;99.90;;;6.69;100.00;98719.78;5042600;28;20081;-82
2023/12/22 07:50:39;;;;;;;14.63;1.75;;;2.80;99.90;;;7.09;100.00;98723.56;5071562;28;20039;-83
2023/12/22 07:53:05;;;;;;;12.73;1.80;;;2.80;99.90;;;6.31;100.00;98763.41;5048839;28;20393;-83
2023/12/22 07:55:31;;;;;;;9.32;1.70;;;2.80;99.90;;;6.92;100.00;98756.88;5073279;28;20033;-81
2023/12/22 07:57:56;;;;;;;12.23;1.98;;;2.80;99.90;;;6.89;100.00;98747.31;5072287;28;20040;-81
2023/12/22 08:00:22;;;;;;;10.20;1.85;;;2.90;99.90;;;7.58;100.00;98755.72;5071917;28;20036;-82
2023/12/22 08:02:48;;;;;;;7.78;1.27;;;3.00;99.90;;;6.75;100.00;98754.91;5049545;28;20036;-82
2023/12/22 08:05:14;;;;;;;5.50;1.05;;;2.90;99.90;;;7.05;100.00;98740.34;5071432;28;20583;-80
2023/12/22 08:07:41;;;;;;;9.63;1.58;;;2.90;99.90;;;6.98;100.00;98750.50;5080491;28;20111;-82
2023/12/22 08:10:07;;;;;;;7.38;1.65;;;2.90;99.90;;;7.60;100.00;98770.66;5071272;28;20124;-80
2023/12/22 08:12:33;;;;;;;25.67;4.78;;;2.90;99.90;;;6.95;100.00;98788.94;5071690;28;20563;-80
2023/12/22 08:14:59;;;;;;;40.65;6.57;;;2.90;99.90;;;6.45;100.00;98764.00;5065675;28;20039;-81
2023/12/22 08:17:24;;;;;;;19.75;3.42;;;2.90;99.90;;;6.17;100.00;98757.41;5075671;28;20032;-82
2023/12/22 08:19:50;;;;;;;19.83;3.78;;;3.20;99.90;;;7.12;100.00;98742.06;5067922;28;20202;-82
2023/12/22 08:22:16;;;;;;;22.33;3.40;;;3.30;99.90;;;7.41;100.00;98752.94;5073529;28;20040;-80
2023/12/22 08:24:42;;;;;;;15.13;2.40;;;3.40;99.90;;;7.68;100.00;98746.91;5081917;28;20042;-81
2023/12/22 08:27:08;;;;;;;18.63;2.53;;;3.40;99.90;;;8.09;100.00;98763.91;5043076;28;20044;-81
2023/12/22 08:29:34;;;;;;;22.75;3.00;;;3.40;99.90;;;8.53;100.00;98763.25;5087366;28;20028;-79
2023/12/22 08:32:00;;;;;;;22.75;3.10;;;3.80;99.90;;;8.98;100.00;98764.13;5054889;28;20052;-79
2023/12/22 08:34:27;;;;;;;22.27;3.25;;;4.40;99.90;;;9.19;100.00;98758.94;5079899;28;20062;-80
2023/12/22 08:36:53;;;;;;;24.65;3.75;;;4.70;99.90;;;8.63;100.00;98757.13;5071118;28;20037;-79
2023/12/22 08:39:19;;;;;;;23.88;4.20;;;4.90;99.90;;;9.28;100.00;98765.59;5058547;28;20029;-81
2023/12/22 08:41:46;;;;;;;19.45;2.80;;;5.00;99.90;;;9.55;100.00;98793.91;5055419;28;20356;-80
2023/12/22 08:44:14;;;;;;;16.80;3.10;;;5.10;99.90;;;8.57;100.00;98779.88;5069966;28;20492;-80
2023/12/22 08:46:40;;;;;;;18.48;3.42;;;5.20;99.90;;;9.11;100.00;98778.44;5072870;28;20044;-82
2023/12/22 08:49:07;;;;;;;15.23;2.95;;;5.30;99.90;;;9.39;100.00;98792.91;5072030;28;20043;-83
2023/12/22 08:51:36;;;;;;;20.45;2.90;;;5.40;99.90;;;9.56;100.00;98793.66;5072036;28;20091;-81
2023/12/22 08:54:04;;;;;;;18.40;2.50;;;5.40;99.90;;;9.49;100.00;98784.84;5069740;28;20054;-82
2023/12/22 08:56:29;;;;;;;18.75;3.40;;;5.60;99.90;;;9.37;100.00;98779.56;5077032;28;20037;-81
2023/12/22 08:58:58;;;;;;;14.93;2.90;;;5.60;99.90;;;9.07;100.00;98799.88;5074841;28;20033;-83
2023/12/22 09:01:24;;;;;;;17.45;2.75;;;5.70;99.90;;;9.21;100.00;98814.75;5071247;28;20136;-81
2023/12/22 09:03:50;;;;;;;16.02;2.75;;;5.80;99.90;;;9.42;100.00;98806.84;5071261;28;20048;-82
2023/12/22 09:06:18;;;;;;;18.00;2.95;;;5.60;99.90;;;8.76;100.00;98813.88;5071682;28;20060;-80
2023/12/22 09:08:44;;;;;;;15.18;2.70;;;5.50;99.90;;;8.52;100.00;98805.09;5069171;28;20031;-83
2023/12/22 09:11:17;;;;;;;15.68;2.92;;;5.50;99.90;;;8.73;100.00;98802.69;5074104;28;20085;-82
2023/12/22 09:13:43;;;;;;;19.70;3.13;;;5.50;99.90;;;9.05;100.00;98802.84;5075627;28;20043;-79
2023/12/22 09:16:10;;;;;;;22.65;3.70;;;5.50;99.90;;;8.97;100.00;98789.69;5072529;28;20039;-79
2023/12/22 09:18:36;;;;;;;15.82;3.00;;;5.50;99.90;;;9.14;100.00;98807.84;5070868;28;20055;-84
2023/12/22 09:21:02;;;;;;;14.70;2.92;;;5.60;99.90;;;9.53;100.00;98794.16;5075752;28;20029;-82
2023/12/22 09:23:29;;;;;;;12.50;2.70;;;5.80;99.90;;;9.50;100.00;98800.09;5071561;28;20032;-80
2023/12/22 09:25:55;;;;;;;16.20;2.78;;;5.90;99.90;;;10.20;100.00;98783.06;5041389;28;20430;-77
2023/12/22 09:28:21;;;;;;;16.92;2.92;;;5.90;99.90;;;10.37;100.00;98796.59;5075079;28;20040;-81
2023/12/22 09:30:46;;;;;;;19.13;3.03;;;6.00;99.90;;;10.74;100.00;98797.66;5076033;28;20032;-77
2023/12/22 09:33:13;;;;;;;20.38;2.83;;;6.10;99.90;;;10.46;100.00;98786.88;5070960;28;20033;-79
2023/12/22 09:35:42;;;;;;;12.93;2.33;;;6.30;99.90;;;10.86;98.13;98771.03;5069079;28;20036;-79
2023/12/22 09:38:12;;;;;;;19.98;2.92;;;6.30;99.90;;;10.80;95.88;98747.53;5076836;28;20047;-81
2023/12/22 09:40:39;;;;;;;11.73;2.35;;;6.20;99.90;;;10.84;97.72;98758.72;5082269;28;20096;-80
2023/12/22 09:43:08;;;;;;;20.40;2.90;;;6.20;99.90;;;10.16;97.82;98747.38;5081425;28;20033;-78
2023/12/22 09:45:34;;;;;;;17.73;2.78;;;6.20;99.90;;;9.55;98.53;98745.75;5064455;28;20027;-82
2023/12/22 09:48:05;;;;;;;12.57;1.90;;;6.20;99.90;;;10.85;95.77;98754.91;5090734;28;20085;-79
2023/12/22 09:50:32;;;;;;;16.50;2.40;;;6.20;99.90;;;10.25;95.96;98736.81;5085949;28;20032;-79
2023/12/22 09:52:59;;;;;;;15.30;2.40;;;6.20;99.90;;;11.40;89.78;98732.75;5085290;28;20098;-81
2023/12/22 09:55:26;;;;;;;15.80;1.77;;;6.50;99.90;;;11.91;82.00;98715.63;5074647;28;20300;-82
2023/12/22 09:57:54;;;;;;;12.55;1.63;;;7.20;99.90;;;10.65;87.95;98729.19;5050783;28;20131;-80
2023/12/22 10:00:22;;;;;;;11.32;2.00;;;6.90;99.90;;;10.37;89.65;98744.81;5073568;28;20036;-80
2023/12/22 10:02:48;;;;;;;11.13;2.20;;;6.50;99.90;;;10.24;90.48;98767.03;5072159;28;20421;-80
2023/12/22 10:05:14;;;;;;;12.38;1.73;;;6.30;99.90;;;10.02;94.38;98781.56;5077771;28;20407;-80
2023/12/22 10:07:45;;;;;;;13.15;1.90;;;6.10;99.90;;;9.50;96.00;98768.28;5078842;28;20037;-83
2023/12/22 10:10:12;;;;;;;10.68;1.95;;;6.00;99.90;;;9.46;97.05;98785.38;5074316;28;20056;-80
2023/12/22 10:12:41;;;;;;;9.40;1.33;;;6.00;99.90;;;9.27;100.00;98812.09;5067196;28;20044;-81
2023/12/22 10:15:12;;;;;;;9.07;1.40;;;5.90;99.90;;;9.00;100.00;98804.69;5062541;28;20047;-79
2023/12/22 10:17:39;;;;;;;8.73;1.77;;;6.00;99.90;;;9.22;100.00;98799.25;5065159;28;20091;-79